createdAt,value
2019-05-13T00:00:00.000Z,9.5
2019-05-13T00:05:00.000Z,9.5
2019-05-13T00:10:00.000Z,9.5
2019-05-13T00:15:00.000Z,9.5
2019-05-13T00:20:00.000Z,9.5
2019-05-13T00:25:00.000Z,9.6
2019-05-13T00:30:00.000Z,9.6
2019-05-13T00:35:00.000Z,9.6
2019-05-13T00:40:00.000Z,9.6
2019-05-13T00:45:00.000Z,9.7
2019-05-13T00:50:00.000Z,9.7
2019-05-13T00:55:00.000Z,9.7
2019-05-13T01:00:00.000Z,9.7
2019-05-13T01:05:00.000Z,9.7
2019-05-13T01:10:00.000Z,9.6
2019-05-13T01:16:00.000Z,9.6
2019-05-13T01:21:00.000Z,9.6
2019-05-13T01:26:00.000Z,9.6
2019-05-13T01:31:00.000Z,9.5
2019-05-13T01:36:00.000Z,9.5
2019-05-13T01:41:00.000Z,9.5
2019-05-13T01:46:00.000Z,9.5
2019-05-13T01:51:00.000Z,9.5
2019-05-13T01:56:00.000Z,9.5
2019-05-13T02:01:00.000Z,9.5
2019-05-13T02:06:00.000Z,9.5
2019-05-13T02:11:00.000Z,9.5
2019-05-13T02:16:00.000Z,9.5
2019-05-13T02:21:00.000Z,9.5
2019-05-13T02:26:00.000Z,9.5
2019-05-13T02:31:00.000Z,9.5
2019-05-13T02:36:00.000Z,9.5
2019-05-13T02:41:00.000Z,9.5
2019-05-13T02:46:00.000Z,9.5
2019-05-13T02:51:00.000Z,9.5
2019-05-13T02:56:00.000Z,9.5
2019-05-13T03:01:00.000Z,9.5
2019-05-13T03:06:00.000Z,9.5
2019-05-13T03:11:00.000Z,9.5
2019-05-13T03:16:00.000Z,9.5
2019-05-13T03:22:00.000Z,9.5
2019-05-13T03:27:00.000Z,9.5
2019-05-13T03:32:00.000Z,9.5
2019-05-13T03:37:00.000Z,9.5
2019-05-13T03:42:00.000Z,9.5
2019-05-13T03:47:00.000Z,9.5
2019-05-13T03:52:00.000Z,9.5
2019-05-13T03:57:00.000Z,9.5
2019-05-13T04:02:00.000Z,9.5
2019-05-13T04:07:00.000Z,9.5
2019-05-13T04:12:00.000Z,9.5
2019-05-13T04:17:00.000Z,9.5
2019-05-13T04:22:00.000Z,9.5
2019-05-13T04:27:00.000Z,9.5
2019-05-13T04:32:00.000Z,9.5
2019-05-13T04:37:00.000Z,9.5
2019-05-13T04:42:00.000Z,9.5
2019-05-13T04:47:00.000Z,9.4
2019-05-13T04:52:00.000Z,9.5
2019-05-13T04:57:00.000Z,9.5
2019-05-13T05:02:00.000Z,9.6
2019-05-13T05:07:00.000Z,9.6
2019-05-13T05:12:00.000Z,9.6
2019-05-13T05:17:00.000Z,9.6
2019-05-13T05:22:00.000Z,9.6
2019-05-13T05:27:00.000Z,9.6
2019-05-13T05:33:00.000Z,9.6
2019-05-13T05:38:00.000Z,9.6
2019-05-13T05:43:00.000Z,9.6
2019-05-13T05:48:00.000Z,9.7
2019-05-13T05:53:00.000Z,9.7
2019-05-13T05:58:00.000Z,9.7
2019-05-13T06:03:00.000Z,9.7
2019-05-13T06:08:00.000Z,9.8
2019-05-13T06:13:00.000Z,9.8
2019-05-13T06:18:00.000Z,9.8
2019-05-13T06:23:00.000Z,9.8
2019-05-13T06:28:00.000Z,9.9
2019-05-13T06:33:00.000Z,9.9
2019-05-13T06:38:00.000Z,10.0
2019-05-13T06:43:00.000Z,10.0
2019-05-13T06:48:00.000Z,10.1
2019-05-13T06:53:00.000Z,10.1
2019-05-13T06:58:00.000Z,10.1
2019-05-13T07:03:00.000Z,10.1
2019-05-13T07:08:00.000Z,10.2
2019-05-13T07:13:00.000Z,10.2
2019-05-13T07:18:00.000Z,10.3
2019-05-13T07:23:00.000Z,10.3
2019-05-13T07:28:00.000Z,10.3
2019-05-13T07:33:00.000Z,10.3
2019-05-13T07:38:00.000Z,10.3
2019-05-13T07:43:00.000Z,10.3
2019-05-13T07:48:00.000Z,10.4
2019-05-13T07:53:00.000Z,10.4
2019-05-13T07:58:00.000Z,10.4
2019-05-13T08:03:00.000Z,10.5
2019-05-13T08:08:00.000Z,10.5
2019-05-13T08:13:00.000Z,10.6
2019-05-13T08:18:00.000Z,10.6
2019-05-13T08:23:00.000Z,10.7
2019-05-13T08:28:00.000Z,10.7
2019-05-13T08:34:00.000Z,10.8
2019-05-13T08:39:00.000Z,10.8
2019-05-13T08:44:00.000Z,10.9
2019-05-13T08:49:00.000Z,11.0
2019-05-13T08:54:00.000Z,11.0
2019-05-13T08:59:00.000Z,11.1
2019-05-13T09:04:00.000Z,11.1
2019-05-13T09:09:00.000Z,11.1
2019-05-13T09:14:00.000Z,11.2
2019-05-13T09:19:00.000Z,11.3
2019-05-13T09:24:00.000Z,11.5
2019-05-13T09:29:00.000Z,11.7
2019-05-13T09:34:00.000Z,11.8
2019-05-13T09:39:00.000Z,12.0
2019-05-13T09:44:00.000Z,12.2
2019-05-13T09:49:00.000Z,12.5
2019-05-13T09:54:00.000Z,12.7
2019-05-13T09:59:00.000Z,12.9
2019-05-13T10:04:00.000Z,13.0
2019-05-13T10:09:00.000Z,13.0
2019-05-13T10:14:00.000Z,13.1
2019-05-13T10:19:00.000Z,13.2
2019-05-13T10:24:00.000Z,13.3
2019-05-13T10:29:00.000Z,13.4
2019-05-13T10:34:00.000Z,13.4
2019-05-13T10:39:00.000Z,13.5
2019-05-13T10:44:00.000Z,13.6
2019-05-13T10:49:00.000Z,13.7
2019-05-13T10:54:00.000Z,13.6
2019-05-13T11:00:00.000Z,13.6
2019-05-13T11:05:00.000Z,13.7
2019-05-13T11:10:00.000Z,13.7
2019-05-13T11:15:00.000Z,13.7
2019-05-13T11:20:00.000Z,13.7
2019-05-13T11:25:00.000Z,13.6
2019-05-13T11:30:00.000Z,13.6
2019-05-13T11:35:00.000Z,13.6
2019-05-13T11:40:00.000Z,13.6
2019-05-13T11:45:00.000Z,13.7
2019-05-13T11:50:00.000Z,13.8
2019-05-13T11:55:00.000Z,13.9
2019-05-13T12:00:00.000Z,14.0
2019-05-13T12:05:00.000Z,13.9
2019-05-13T12:10:00.000Z,13.9
2019-05-13T12:15:00.000Z,13.9
2019-05-13T12:20:00.000Z,13.9
2019-05-13T12:25:00.000Z,14.0
2019-05-13T12:30:00.000Z,14.1
2019-05-13T12:35:00.000Z,14.2
2019-05-13T12:40:00.000Z,14.2
2019-05-13T12:45:00.000Z,14.3
2019-05-13T12:50:00.000Z,14.2
2019-05-13T12:55:00.000Z,14.1
2019-05-13T13:01:00.000Z,13.9
2019-05-13T13:06:00.000Z,13.9
2019-05-13T13:11:00.000Z,13.8
2019-05-13T13:16:00.000Z,13.7
2019-05-13T13:21:00.000Z,13.6
2019-05-13T13:26:00.000Z,13.5
2019-05-13T13:31:00.000Z,13.5
2019-05-13T13:36:00.000Z,13.5
2019-05-13T13:41:00.000Z,13.5
2019-05-13T13:46:00.000Z,13.5
2019-05-13T13:51:00.000Z,13.5
2019-05-13T13:56:00.000Z,13.5
2019-05-13T14:01:00.000Z,13.5
2019-05-13T14:06:00.000Z,13.4
2019-05-13T14:12:00.000Z,13.3
2019-05-13T14:17:00.000Z,13.3
2019-05-13T14:22:00.000Z,13.3
2019-05-13T14:27:00.000Z,13.2
2019-05-13T14:32:00.000Z,13.2
2019-05-13T14:37:00.000Z,13.1
2019-05-13T14:42:00.000Z,13.1
2019-05-13T14:47:00.000Z,13.1
2019-05-13T14:52:00.000Z,13.1
2019-05-13T14:57:00.000Z,13.1
2019-05-13T15:02:00.000Z,13.2
2019-05-13T15:07:00.000Z,13.2
2019-05-13T15:12:00.000Z,13.2
2019-05-13T15:17:00.000Z,13.2
2019-05-13T15:22:00.000Z,13.2
2019-05-13T15:27:00.000Z,13.3
2019-05-13T15:32:00.000Z,13.3
2019-05-13T15:37:00.000Z,13.3
2019-05-13T15:43:00.000Z,13.3
2019-05-13T15:48:00.000Z,13.2
2019-05-13T15:53:00.000Z,13.2
2019-05-13T15:58:00.000Z,13.1
2019-05-13T16:03:00.000Z,13.0
2019-05-13T16:08:00.000Z,12.8
2019-05-13T16:13:00.000Z,12.7
2019-05-13T16:18:00.000Z,12.6
2019-05-13T16:23:00.000Z,12.4
2019-05-13T16:28:00.000Z,12.3
2019-05-13T16:33:00.000Z,12.2
2019-05-13T16:38:00.000Z,12.1
2019-05-13T16:43:00.000Z,12.1
2019-05-13T16:48:00.000Z,12.1
2019-05-13T16:53:00.000Z,12.0
2019-05-13T16:58:00.000Z,12.0
2019-05-13T17:03:00.000Z,11.9
2019-05-13T17:08:00.000Z,11.9
2019-05-13T17:13:00.000Z,11.9
2019-05-13T17:18:00.000Z,11.8
2019-05-13T17:23:00.000Z,11.7
2019-05-13T17:28:00.000Z,11.6
2019-05-13T17:33:00.000Z,11.5
2019-05-13T17:38:00.000Z,11.4
2019-05-13T17:43:00.000Z,11.4
2019-05-13T17:48:00.000Z,11.3
2019-05-13T17:53:00.000Z,11.3
2019-05-13T17:58:00.000Z,11.3
2019-05-13T18:03:00.000Z,11.3
2019-05-13T18:08:00.000Z,11.2
2019-05-13T18:13:00.000Z,11.0
2019-05-13T18:18:00.000Z,10.9
2019-05-13T18:23:00.000Z,10.8
2019-05-13T18:28:00.000Z,10.8
2019-05-13T18:33:00.000Z,10.8
2019-05-13T18:38:00.000Z,10.7
2019-05-13T18:43:00.000Z,10.7
2019-05-13T18:48:00.000Z,10.6
2019-05-13T18:54:00.000Z,10.6
2019-05-13T18:59:00.000Z,10.5
2019-05-13T19:04:00.000Z,10.5
2019-05-13T19:09:00.000Z,10.4
2019-05-13T19:14:00.000Z,10.4
2019-05-13T19:19:00.000Z,10.4
2019-05-13T19:24:00.000Z,10.4
2019-05-13T19:29:00.000Z,10.4
2019-05-13T19:34:00.000Z,10.4
2019-05-13T19:39:00.000Z,10.4
2019-05-13T19:44:00.000Z,10.4
2019-05-13T19:49:00.000Z,10.4
2019-05-13T19:54:00.000Z,10.4
2019-05-13T19:59:00.000Z,10.4
2019-05-13T20:04:00.000Z,10.4
2019-05-13T20:09:00.000Z,10.4
2019-05-13T20:14:00.000Z,10.4
2019-05-13T20:19:00.000Z,10.4
2019-05-13T20:24:00.000Z,10.4
2019-05-13T20:29:00.000Z,10.4
2019-05-13T20:34:00.000Z,10.4
2019-05-13T20:39:00.000Z,10.4
2019-05-13T20:44:00.000Z,10.3
2019-05-13T20:49:00.000Z,10.3
2019-05-13T20:55:00.000Z,10.2
2019-05-13T21:00:00.000Z,10.2
2019-05-13T21:05:00.000Z,10.2
2019-05-13T21:10:00.000Z,10.2
2019-05-13T21:15:00.000Z,10.1
2019-05-13T21:20:00.000Z,10.1
2019-05-13T21:25:00.000Z,10.1
2019-05-13T21:30:00.000Z,10.1
2019-05-13T21:35:00.000Z,10.1
2019-05-13T21:40:00.000Z,10.1
2019-05-13T21:45:00.000Z,10.0
2019-05-13T21:50:00.000Z,10.0
2019-05-13T21:55:00.000Z,10.0
2019-05-13T22:00:00.000Z,10.0
2019-05-13T22:05:00.000Z,10.0
2019-05-13T22:10:00.000Z,9.9
2019-05-13T22:15:00.000Z,9.9
2019-05-13T22:20:00.000Z,9.9
2019-05-13T22:25:00.000Z,9.8
2019-05-13T22:30:00.000Z,9.8
2019-05-13T22:35:00.000Z,9.8
2019-05-13T22:40:00.000Z,9.8
2019-05-13T22:45:00.000Z,9.8
2019-05-13T22:50:00.000Z,9.8
2019-05-13T22:55:00.000Z,9.8
2019-05-13T23:00:00.000Z,9.8
2019-05-13T23:06:00.000Z,9.8
2019-05-13T23:11:00.000Z,9.8
2019-05-13T23:16:00.000Z,9.8
2019-05-13T23:21:00.000Z,9.7
2019-05-13T23:26:00.000Z,9.7
2019-05-13T23:31:00.000Z,9.6
2019-05-13T23:36:00.000Z,9.6
2019-05-13T23:41:00.000Z,9.5
2019-05-13T23:46:00.000Z,9.5
2019-05-13T23:51:00.000Z,9.5
2019-05-13T23:56:00.000Z,9.5
